Terminal Aerodrome Forecast
Issued by NWS

Home | Current Version | Previous Version | Graphics & Text | Print | Product List | Glossary On
Versions: 1 2 3 4 5 6 7 8 9 10 11 12 13 14 15 16 17 18
782
FTUS43 KGRB 231740
TAFATW
TAF
KATW 231740Z 2318/2418 06009KT P6SM OVC015
     FM232100 06010KT P6SM SCT020 BKN050
     FM240100 06005KT P6SM SCT150
     FM241200 10006KT P6SM BKN040=

USA.gov is the U.S. government's official web portal to all federal, state and local government web resources and services.